Time;durP1;ratioP1;P1;durP2;ratioP2;P2;SDS_P1;SDS_P2;PMS_P1;PMS_P2;Temp;Humidity;BMP_temperature;BMP_pressure;BME280_temperature;BME280_humidity;BME280_pressure;Samples;Min_cycle;Max_cycle;Signal;HPM_P1;HPM_P2
2023/07/16 00:01:48;;;;;;;0.90;0.90;;;;;;;27.45;100.00;100179.66;5052814;28;20206;-70
2023/07/16 00:04:15;;;;;;;0.65;0.65;;;;;;;27.25;100.00;100167.34;5016812;28;20207;-70
2023/07/16 00:06:43;;;;;;;0.88;0.88;;;;;;;27.43;100.00;100176.19;5018665;28;20215;-70
2023/07/16 00:09:09;;;;;;;0.60;0.60;;;;;;;27.37;100.00;100166.69;5037565;28;20207;-70
2023/07/16 00:11:36;;;;;;;0.90;0.90;;;;;;;27.07;100.00;100128.38;5052289;28;20203;-70
2023/07/16 00:14:03;;;;;;;0.70;0.70;;;;;;;27.33;100.00;100181.09;5051086;28;20239;-70
2023/07/16 00:16:30;;;;;;;0.90;0.90;;;;;;;27.35;100.00;100173.91;5051957;28;20214;-70
2023/07/16 00:18:57;;;;;;;0.80;0.80;;;;;;;27.07;100.00;100139.03;5051470;28;20207;-71
2023/07/16 00:21:25;;;;;;;0.70;0.70;;;;;;;27.07;100.00;100137.22;5016893;28;20264;-70
2023/07/16 00:23:53;;;;;;;1.02;1.02;;;;;;;27.11;100.00;100172.53;5051580;28;20207;-71
2023/07/16 00:26:19;;;;;;;0.70;0.70;;;;;;;26.97;100.00;100170.53;5051637;28;20623;-71
2023/07/16 00:28:46;;;;;;;0.80;0.80;;;;;;;26.96;100.00;100162.66;5052152;28;20667;-70
2023/07/16 00:31:13;;;;;;;0.68;0.68;;;;;;;27.00;100.00;100167.72;5051825;28;20199;-71
2023/07/16 00:33:40;;;;;;;0.70;0.70;;;;;;;27.00;100.00;100167.72;5051202;28;20671;-70
2023/07/16 00:36:06;;;;;;;0.80;0.80;;;;;;;26.90;100.00;100155.84;5051943;28;20941;-71
2023/07/16 00:38:33;;;;;;;0.80;0.80;;;;;;;27.03;100.00;100172.06;5028811;28;20592;-71
2023/07/16 00:41:01;;;;;;;0.70;0.70;;;;;;;27.06;100.00;100170.09;5051219;28;20748;-71
2023/07/16 00:43:28;;;;;;;1.08;1.08;;;;;;;26.94;100.00;100168.03;5052005;28;20200;-70
2023/07/16 00:45:55;;;;;;;1.45;1.45;;;;;;;27.01;100.00;100157.94;5051579;28;20199;-71
2023/07/16 00:48:22;;;;;;;1.00;1.00;;;;;;;27.03;100.00;100161.41;5051444;28;20671;-70
2023/07/16 00:50:51;;;;;;;0.80;0.80;;;;;;;27.00;100.00;100165.06;5051616;28;20264;-70
2023/07/16 00:53:18;;;;;;;0.80;0.80;;;;;;;27.21;100.00;100159.59;5049433;28;20357;-70
2023/07/16 00:55:45;;;;;;;0.70;0.70;;;;;;;27.14;100.00;100168.84;5050822;28;20297;-70
2023/07/16 00:58:13;;;;;;;0.85;0.85;;;;;;;26.99;100.00;100151.84;5050335;28;20690;-70
2023/07/16 01:00:41;;;;;;;0.80;0.80;;;;;;;26.51;100.00;100081.53;5049799;28;20760;-71
2023/07/16 01:03:11;;;;;;;0.80;0.80;;;;;;;26.92;100.00;100159.28;5051613;28;20215;-71
2023/07/16 01:05:46;;;;;;;0.70;0.70;;;;;;;26.88;100.00;100157.72;5016706;28;20207;-71
2023/07/16 01:08:15;;;;;;;0.80;0.80;;;;;;;26.83;100.00;100154.41;5051539;28;20198;-71
2023/07/16 01:10:43;;;;;;;0.82;0.82;;;;;;;26.82;100.00;100152.72;5050874;28;20591;-70
2023/07/16 01:13:10;;;;;;;0.80;0.80;;;;;;;26.73;100.00;100157.59;5050074;28;20204;-70
2023/07/16 01:15:38;;;;;;;0.70;0.70;;;;;;;26.87;100.00;100160.44;5050014;28;20227;-70
2023/07/16 01:18:06;;;;;;;1.38;1.27;;;;;;;26.94;100.00;100162.72;5051191;28;20265;-69
2023/07/16 01:20:33;;;;;;;0.77;0.77;;;;;;;26.93;100.00;100161.00;5050183;28;20211;-68
2023/07/16 01:23:15;;;;;;;0.77;0.77;;;;;;;27.03;100.00;100162.28;5051131;28;20598;-68
2023/07/16 01:26:18;;;;;;;0.75;0.75;;;;;;;26.95;100.00;100152.94;5049241;28;20253;-69
2023/07/16 01:29:20;;;;;;;0.95;0.93;;;;;;;26.90;100.00;100158.50;5050819;28;20680;-69
2023/07/16 01:31:50;;;;;;;0.80;0.80;;;;;;;26.84;100.00;100145.50;5050463;28;20234;-69
2023/07/16 01:34:18;;;;;;;0.82;0.82;;;;;;;26.69;100.00;100156.88;5046564;28;20575;-69
2023/07/16 01:36:46;;;;;;;0.80;0.80;;;;;;;26.74;100.00;100152.19;5050910;28;20625;-69
2023/07/16 01:39:13;;;;;;;0.98;0.98;;;;;;;26.62;100.00;100147.47;5050258;28;20191;-69
2023/07/16 01:41:40;;;;;;;0.60;0.60;;;;;;;26.59;100.00;100150.31;5050983;28;20211;-69
2023/07/16 01:44:06;;;;;;;0.90;0.90;;;;;;;26.51;100.00;100147.16;5050852;28;20207;-69
2023/07/16 01:46:35;;;;;;;0.80;0.80;;;;;;;26.41;100.00;100124.59;5050859;28;20677;-68
2023/07/16 01:49:01;;;;;;;2.35;1.52;;;;;;;26.48;100.00;100131.34;5050744;28;20257;-69
2023/07/16 01:51:28;;;;;;;0.75;0.75;;;;;;;26.60;100.00;100149.38;5031314;28;20200;-69
2023/07/16 01:53:55;;;;;;;0.80;0.80;;;;;;;26.42;100.00;100132.53;5037025;28;20258;-69
2023/07/16 01:56:22;;;;;;;0.70;0.70;;;;;;;26.56;100.00;100145.13;5050921;28;20223;-69
2023/07/16 01:58:48;;;;;;;0.70;0.70;;;;;;;26.46;100.00;100144.75;5049306;28;20235;-69
2023/07/16 02:01:15;;;;;;;0.70;0.70;;;;;;;26.39;100.00;100151.28;5050600;28;20195;-69
2023/07/16 02:03:43;;;;;;;0.80;0.80;;;;;;;26.37;100.00;100144.31;5050929;28;20208;-69
2023/07/16 02:06:10;;;;;;;0.80;0.80;;;;;;;26.26;100.00;100136.00;5050607;28;20254;-69
2023/07/16 02:08:37;;;;;;;0.70;0.70;;;;;;;26.37;100.00;100150.50;5050125;28;20211;-69
2023/07/16 02:11:03;;;;;;;1.15;1.15;;;;;;;26.37;100.00;100154.94;5050268;28;20208;-68
2023/07/16 02:13:30;;;;;;;0.90;0.90;;;;;;;26.39;100.00;100153.09;5047606;28;20207;-69
2023/07/16 02:15:57;;;;;;;0.80;0.80;;;;;;;26.42;100.00;100155.59;5048836;28;20235;-69
2023/07/16 02:18:23;;;;;;;0.70;0.70;;;;;;;26.35;100.00;100149.72;5048673;28;20211;-69
2023/07/16 02:20:52;;;;;;;0.75;0.75;;;;;;;26.31;100.00;100131.31;5050408;28;20639;-69
2023/07/16 02:23:18;;;;;;;0.70;0.70;;;;;;;26.25;100.00;100139.59;5050694;28;20222;-69
2023/07/16 02:25:45;;;;;;;1.60;1.60;;;;;;;26.33;100.00;100148.03;5050177;28;20204;-69
2023/07/16 02:28:12;;;;;;;0.70;0.70;;;;;;;26.25;100.00;100132.50;5050507;28;20323;-68
2023/07/16 02:30:41;;;;;;;0.70;0.70;;;;;;;26.43;100.00;100149.34;5050455;28;20666;-68
2023/07/16 02:33:08;;;;;;;1.00;1.00;;;;;;;26.38;100.00;100144.25;5049241;28;20265;-68
2023/07/16 02:35:35;;;;;;;0.60;0.60;;;;;;;26.38;100.00;100152.22;5048787;28;20273;-69
2023/07/16 02:38:03;;;;;;;0.60;0.60;;;;;;;26.48;100.00;100152.63;5049868;28;20210;-70
2023/07/16 02:40:30;;;;;;;0.73;0.73;;;;;;;26.47;100.00;100156.25;5013037;28;20675;-70
2023/07/16 02:42:56;;;;;;;0.70;0.70;;;;;;;26.48;100.00;100157.94;5045512;28;20210;-70
2023/07/16 02:45:23;;;;;;;0.70;0.70;;;;;;;26.38;100.00;100154.88;5028468;28;20214;-69
2023/07/16 02:47:50;;;;;;;0.60;0.60;;;;;;;26.42;100.00;100166.22;5050074;28;20214;-70
2023/07/16 02:50:17;;;;;;;0.75;0.75;;;;;;;26.51;100.00;100163.09;5015086;28;20200;-69
2023/07/16 02:52:44;;;;;;;0.68;0.68;;;;;;;26.49;100.00;100165.88;5052798;28;20659;-70
2023/07/16 02:55:12;;;;;;;0.75;0.75;;;;;;;26.61;100.00;100164.41;5053414;28;20223;-69
2023/07/16 02:57:39;;;;;;;0.60;0.60;;;;;;;26.61;100.00;100164.41;5053592;28;20293;-69
2023/07/16 03:00:07;;;;;;;0.70;0.70;;;;;;;26.73;100.00;100176.22;5051672;28;20230;-70
2023/07/16 03:02:33;;;;;;;1.08;1.08;;;;;;;26.68;100.00;100176.47;5053737;28;20682;-69
2023/07/16 03:05:00;;;;;;;0.60;0.60;;;;;;;26.65;100.00;100165.13;5053427;28;20646;-70
2023/07/16 03:07:27;;;;;;;0.80;0.80;;;;;;;26.78;100.00;100188.38;5053792;28;20278;-69
2023/07/16 03:09:54;;;;;;;0.80;0.80;;;;;;;26.82;100.00;100182.00;5049288;28;20258;-69
2023/07/16 03:12:22;;;;;;;0.75;0.75;;;;;;;26.91;100.00;100186.84;5049625;28;20214;-70
2023/07/16 03:14:50;;;;;;;0.60;0.60;;;;;;;26.93;100.00;100176.13;5052188;28;20638;-69
2023/07/16 03:17:17;;;;;;;0.90;0.90;;;;;;;27.10;100.00;100189.44;5052965;28;20203;-70
2023/07/16 03:19:44;;;;;;;0.70;0.70;;;;;;;27.01;100.00;100174.78;5051720;28;20199;-69
2023/07/16 03:22:10;;;;;;;0.70;0.70;;;;;;;27.15;100.00;100187.38;5053344;28;20265;-70
2023/07/16 03:24:37;;;;;;;0.80;0.80;;;;;;;26.73;100.00;100110.56;5053100;28;20195;-69
2023/07/16 03:27:04;;;;;;;0.70;0.70;;;;;;;27.21;100.00;100172.91;5053247;28;20199;-69
2023/07/16 03:29:33;;;;;;;1.42;1.35;;;;;;;27.45;100.00;100192.97;5018007;28;20203;-71
2023/07/16 03:32:00;;;;;;;0.60;0.60;;;;;;;27.50;100.00;100178.44;5050699;28;20195;-69
2023/07/16 03:34:27;;;;;;;0.88;0.88;;;;;;;27.89;100.00;100199.47;5051555;28;20728;-68
2023/07/16 03:36:54;;;;;;;0.70;0.70;;;;;;;28.17;100.00;100174.81;5052798;28;20775;-69
2023/07/16 03:39:20;;;;;;;0.70;0.70;;;;;;;28.59;100.00;100200.88;5051940;28;20199;-69
2023/07/16 03:41:47;;;;;;;0.70;0.70;;;;;;;28.92;100.00;100204.31;5053010;28;20199;-69
2023/07/16 03:44:14;;;;;;;0.70;0.70;;;;;;;29.19;100.00;100187.59;5052874;28;20299;-69
2023/07/16 03:46:42;;;;;;;0.90;0.90;;;;;;;29.60;100.00;100220.72;5052823;28;20198;-69
2023/07/16 03:49:09;;;;;;;0.80;0.80;;;;;;;29.90;100.00;100217.97;5052741;28;20199;-72
2023/07/16 03:51:36;;;;;;;0.85;0.85;;;;;;;30.19;98.61;100224.19;5051364;28;20234;-70
2023/07/16 03:54:03;;;;;;;1.00;1.00;;;;;;;30.33;97.89;100219.66;5051021;28;20195;-70
2023/07/16 03:56:29;;;;;;;0.75;0.75;;;;;;;30.73;94.70;100226.00;5052962;28;20226;-70
2023/07/16 03:58:59;;;;;;;0.73;0.73;;;;;;;31.10;88.71;100228.94;5051906;28;20242;-69
2023/07/16 04:01:26;;;;;;;0.68;0.68;;;;;;;31.76;87.53;100227.00;5052307;28;20592;-69
2023/07/16 04:03:54;;;;;;;0.70;0.70;;;;;;;32.25;82.42;100226.25;5052267;28;20673;-70
2023/07/16 04:06:21;;;;;;;0.63;0.63;;;;;;;32.37;79.58;100244.97;5017764;28;20203;-70
2023/07/16 04:08:46;;;;;;;0.70;0.70;;;;;;;32.60;78.20;100248.72;5051652;28;20199;-70
2023/07/16 04:11:13;;;;;;;0.70;0.70;;;;;;;32.85;75.84;100253.13;5051822;28;20214;-71
2023/07/16 04:13:40;;;;;;;0.77;0.77;;;;;;;32.98;74.23;100186.75;5052387;28;20199;-69
2023/07/16 04:16:07;;;;;;;0.60;0.60;;;;;;;33.54;71.54;100252.31;5052478;28;20230;-71
2023/07/16 04:18:33;;;;;;;1.00;1.00;;;;;;;33.81;68.57;100260.97;5051748;28;20195;-71
2023/07/16 04:21:02;;;;;;;0.70;0.70;;;;;;;34.09;65.31;100256.09;5017314;28;20203;-70
2023/07/16 04:23:28;;;;;;;0.70;0.70;;;;;;;34.29;64.76;100250.84;5052196;28;20210;-71
2023/07/16 04:25:56;;;;;;;0.60;0.60;;;;;;;34.62;64.45;100265.25;5052259;28;20199;-75
2023/07/16 04:28:23;;;;;;;1.00;1.00;;;;;;;34.63;61.85;100250.84;5016633;28;20199;-71
2023/07/16 04:30:50;;;;;;;0.70;0.70;;;;;;;34.90;62.85;100266.53;5052235;28;20203;-71
2023/07/16 04:33:18;;;;;;;0.63;0.63;;;;;;;35.11;62.22;100252.13;5048697;28;20211;-71
2023/07/16 04:35:45;;;;;;;0.55;0.55;;;;;;;34.71;64.06;100270.75;5049197;28;20871;-71
2023/07/16 04:38:13;;;;;;;0.60;0.60;;;;;;;35.19;63.12;100260.47;5045998;28;20617;-71
2023/07/16 04:40:42;;;;;;;0.70;0.70;;;;;;;35.47;61.41;100264.38;5012146;28;20567;-73
2023/07/16 04:43:09;;;;;;;0.50;0.50;;;;;;;35.75;59.15;100266.44;5049303;28;20214;-72
2023/07/16 04:45:35;;;;;;;1.05;1.05;;;;;;;35.93;58.92;100257.72;5043671;28;20247;-73
2023/07/16 04:48:02;;;;;;;0.60;0.60;;;;;;;36.27;58.53;100275.41;5050891;28;20202;-72
2023/07/16 04:50:29;;;;;;;0.70;0.70;;;;;;;36.36;57.66;100279.97;5050913;28;20202;-72
2023/07/16 04:52:55;;;;;;;0.70;0.70;;;;;;;36.38;57.43;100280.69;5051326;28;20257;-71
2023/07/16 04:55:24;;;;;;;0.75;0.75;;;;;;;36.55;57.16;100276.47;5051039;28;20199;-72
2023/07/16 04:57:53;;;;;;;0.65;0.65;;;;;;;36.80;55.04;100280.56;5049007;28;20231;-71
2023/07/16 05:00:20;;;;;;;0.60;0.60;;;;;;;36.54;55.69;100281.03;5043878;28;20235;-71
2023/07/16 05:02:46;;;;;;;0.60;0.60;;;;;;;36.50;56.14;100286.84;5015184;28;20678;-72
2023/07/16 05:05:13;;;;;;;0.60;0.60;;;;;;;36.83;55.13;100285.69;5051001;28;20591;-72
2023/07/16 05:07:40;;;;;;;0.70;0.70;;;;;;;37.12;54.19;100275.78;5055896;28;20248;-72
2023/07/16 05:10:08;;;;;;;0.70;0.70;;;;;;;37.17;53.66;100278.94;5050349;28;20218;-69
2023/07/16 05:12:36;;;;;;;0.65;0.65;;;;;;;37.16;53.91;100271.81;5049684;28;20230;-69
2023/07/16 05:15:03;;;;;;;1.77;1.67;;;;;;;36.55;55.51;100290.00;5049831;28;20724;-72
2023/07/16 05:17:30;;;;;;;0.68;0.68;;;;;;;36.49;56.95;100287.84;5051172;28;20234;-72
2023/07/16 05:19:56;;;;;;;0.75;0.75;;;;;;;36.74;55.80;100292.78;5050344;28;20211;-72
2023/07/16 05:22:23;;;;;;;0.60;0.60;;;;;;;36.92;55.50;100290.25;5049448;28;20206;-72
2023/07/16 05:24:50;;;;;;;1.33;1.30;;;;;;;37.35;54.06;100269.06;5051176;28;20728;-74
2023/07/16 05:27:17;;;;;;;0.60;0.60;;;;;;;37.63;53.28;100289.91;5050279;28;20222;-72
2023/07/16 05:29:45;;;;;;;0.85;0.85;;;;;;;37.91;51.40;100279.13;5048117;28;20218;-73
2023/07/16 05:32:12;;;;;;;0.60;0.60;;;;;;;37.92;50.99;100297.09;5050729;28;20211;-74
2023/07/16 05:34:38;;;;;;;0.60;0.60;;;;;;;37.93;49.34;100280.72;5049650;28;20203;-75
2023/07/16 05:37:06;;;;;;;0.50;0.50;;;;;;;37.38;50.41;100298.56;5050213;28;20223;-74
2023/07/16 05:39:32;;;;;;;0.70;0.70;;;;;;;37.37;50.19;100302.25;5039674;28;20215;-75
2023/07/16 05:42:01;;;;;;;0.60;0.60;;;;;;;36.75;51.74;100300.75;5012733;28;20202;-75
2023/07/16 05:44:28;;;;;;;0.57;0.57;;;;;;;36.36;53.45;100282.66;5045806;28;20285;-75
2023/07/16 05:46:56;;;;;;;0.80;0.80;;;;;;;36.18;53.02;100298.66;5048618;28;20293;-71
2023/07/16 05:49:24;;;;;;;0.95;0.95;;;;;;;35.65;55.47;100287.09;5041392;28;20895;-74
2023/07/16 05:51:50;;;;;;;1.17;1.17;;;;;;;35.78;54.77;100290.44;5047472;28;20207;-75
2023/07/16 05:54:17;;;;;;;3.83;2.75;;;;;;;35.29;54.84;100291.06;5040241;28;20218;-74
2023/07/16 05:56:44;;;;;;;1.60;1.50;;;;;;;34.18;56.83;100232.00;5048997;28;20230;-75
2023/07/16 05:59:11;;;;;;;0.60;0.60;;;;;;;34.53;56.07;100291.13;5043231;28;20714;-73
2023/07/16 06:01:38;;;;;;;0.68;0.68;;;;;;;34.08;61.37;100302.81;5045082;28;20214;-73
2023/07/16 06:04:06;;;;;;;0.70;0.70;;;;;;;33.80;59.10;100286.16;5049761;28;20300;-73
2023/07/16 06:06:32;;;;;;;0.70;0.70;;;;;;;33.63;59.09;100300.06;5029063;28;20207;-74
2023/07/16 06:08:59;;;;;;;0.80;0.80;;;;;;;33.55;57.06;100272.00;5048938;28;20305;-74
2023/07/16 06:11:26;;;;;;;0.68;0.68;;;;;;;34.41;57.18;100302.00;5047356;28;20623;-72
2023/07/16 06:13:55;;;;;;;0.70;0.70;;;;;;;34.56;58.69;100292.69;5047750;28;20211;-70
2023/07/16 06:16:22;;;;;;;1.15;1.15;;;;;;;34.59;59.59;100306.78;5050138;28;20361;-69
2023/07/16 06:18:49;;;;;;;0.82;0.82;;;;;;;34.92;57.01;100300.50;5046131;28;20195;-70
2023/07/16 06:21:17;;;;;;;0.70;0.70;;;;;;;35.29;58.39;100311.78;5050288;28;20202;-70
2023/07/16 06:23:44;;;;;;;0.70;0.70;;;;;;;34.89;59.17;100313.38;5047859;28;20199;-69
2023/07/16 06:26:11;;;;;;;0.60;0.60;;;;;;;34.50;59.90;100291.34;5050787;28;20214;-69
2023/07/16 06:28:37;;;;;;;0.60;0.60;;;;;;;34.58;58.95;100312.28;5045144;28;20204;-72
2023/07/16 06:31:04;;;;;;;0.60;0.60;;;;;;;34.81;55.94;100314.84;5047236;28;20210;-70
2023/07/16 06:33:31;;;;;;;0.60;0.60;;;;;;;34.68;60.24;100281.78;5054088;28;20210;-70
2023/07/16 06:35:58;;;;;;;0.70;0.70;;;;;;;34.73;58.54;100319.16;5053795;28;20230;-70
2023/07/16 06:38:26;;;;;;;0.50;0.50;;;;;;;34.77;59.47;100316.09;5054135;28;20195;-71
2023/07/16 06:40:53;;;;;;;0.80;0.80;;;;;;;34.08;59.62;100308.19;5053213;28;20202;-70
2023/07/16 06:43:20;;;;;;;0.70;0.70;;;;;;;34.00;60.89;100310.66;5018103;28;20210;-68
2023/07/16 06:45:46;;;;;;;0.60;0.60;;;;;;;33.28;64.06;100310.75;5053996;28;20210;-69
2023/07/16 06:48:13;;;;;;;0.50;0.50;;;;;;;33.20;65.91;100312.34;5051667;28;20191;-69
2023/07/16 06:50:40;;;;;;;0.60;0.60;;;;;;;33.49;65.26;100291.31;5051597;28;20195;-71
2023/07/16 06:53:07;;;;;;;1.20;0.93;;;;;;;33.73;65.99;100311.81;5053106;28;20203;-70
2023/07/16 06:55:35;;;;;;;1.40;1.30;;;;;;;33.96;64.75;100306.50;5051933;28;20681;-70
2023/07/16 06:58:02;;;;;;;0.60;0.60;;;;;;;33.91;65.33;100308.66;5052224;28;20243;-69
2023/07/16 07:00:29;;;;;;;0.60;0.60;;;;;;;33.87;63.53;100303.53;5052582;28;20206;-70
2023/07/16 07:02:56;;;;;;;0.60;0.60;;;;;;;33.97;63.07;100295.59;5045030;28;20561;-69
2023/07/16 07:05:23;;;;;;;0.60;0.60;;;;;;;33.87;64.51;100286.53;5048269;28;20269;-70
2023/07/16 07:07:50;;;;;;;0.80;0.80;;;;;;;34.18;62.87;100301.13;5050007;28;20206;-78
2023/07/16 07:10:17;;;;;;;1.10;0.88;;;;;;;34.00;63.69;100307.97;5051600;28;20207;-75
2023/07/16 07:12:45;;;;;;;0.60;0.60;;;;;;;34.25;63.84;100313.13;5011474;28;20206;-71
2023/07/16 07:15:12;;;;;;;0.70;0.70;;;;;;;34.03;64.29;100307.72;5043783;28;20202;-70
2023/07/16 07:17:39;;;;;;;0.60;0.60;;;;;;;33.81;62.70;100306.72;5051253;28;20253;-70
2023/07/16 07:20:07;;;;;;;0.60;0.60;;;;;;;34.06;65.16;100312.88;5052386;28;20202;-70
2023/07/16 07:22:34;;;;;;;0.60;0.60;;;;;;;33.70;60.95;100206.28;5017643;28;20199;-70
2023/07/16 07:25:01;;;;;;;0.57;0.57;;;;;;;34.72;59.20;100302.13;5052879;28;20210;-70
2023/07/16 07:27:28;;;;;;;0.50;0.50;;;;;;;35.05;57.40;100320.06;5051455;28;20625;-71
2023/07/16 07:29:56;;;;;;;0.77;0.77;;;;;;;35.24;57.76;100309.50;5013042;28;20208;-72
2023/07/16 07:32:23;;;;;;;1.45;0.98;;;;;;;34.93;58.28;100315.66;5040545;28;20199;-70
2023/07/16 07:34:50;;;;;;;0.80;0.80;;;;;;;34.85;57.14;100310.91;5048143;28;20203;-71
2023/07/16 07:37:17;;;;;;;0.60;0.60;;;;;;;34.97;58.36;100311.75;5049868;28;20231;-71
2023/07/16 07:39:47;;;;;;;0.68;0.68;;;;;;;34.51;58.55;100305.66;5050903;28;20191;-70
2023/07/16 07:42:14;;;;;;;0.60;0.60;;;;;;;34.12;63.01;100301.59;5051875;28;20666;-69
2023/07/16 07:44:41;;;;;;;0.60;0.60;;;;;;;34.72;60.07;100306.66;5051188;28;20201;-70
2023/07/16 07:47:09;;;;;;;1.23;1.23;;;;;;;35.17;57.89;100302.03;5051624;28;20202;-71
2023/07/16 07:49:36;;;;;;;0.60;0.60;;;;;;;35.28;56.96;100296.59;5049609;28;20226;-70
2023/07/16 07:52:03;;;;;;;0.60;0.60;;;;;;;34.89;56.44;100289.13;5039418;28;20214;-70
2023/07/16 07:54:29;;;;;;;0.70;0.70;;;;;;;34.96;56.13;100298.41;5046313;28;20210;-70
2023/07/16 07:56:56;;;;;;;0.60;0.60;;;;;;;35.08;57.62;100294.66;5052175;28;21406;-71
2023/07/16 07:59:23;;;;;;;0.80;0.80;;;;;;;34.87;57.51;100294.63;5052029;28;20203;-71
2023/07/16 08:01:49;;;;;;;0.60;0.60;;;;;;;35.20;56.41;100270.28;5003503;28;20241;-71
2023/07/16 08:04:18;;;;;;;0.60;0.60;;;;;;;35.60;56.41;100299.25;5050704;28;20195;-72
2023/07/16 08:06:44;;;;;;;0.60;0.60;;;;;;;35.86;54.57;100288.94;5051138;28;20209;-71
2023/07/16 08:09:11;;;;;;;0.60;0.60;;;;;;;36.14;52.36;100302.63;5051173;28;20199;-72
2023/07/16 08:11:38;;;;;;;0.73;0.73;;;;;;;36.02;52.58;100295.56;5051742;28;20207;-70
2023/07/16 08:14:05;;;;;;;0.60;0.60;;;;;;;35.74;53.47;100293.56;5049880;28;20203;-71
2023/07/16 08:16:31;;;;;;;0.60;0.60;;;;;;;35.66;53.59;100296.06;5050610;28;20305;-71
2023/07/16 08:18:58;;;;;;;0.70;0.70;;;;;;;35.70;52.91;100295.69;5051579;28;20604;-69
2023/07/16 08:21:26;;;;;;;0.50;0.50;;;;;;;35.76;52.93;100278.94;5051471;28;20685;-69
2023/07/16 08:23:53;;;;;;;0.60;0.60;;;;;;;36.08;51.42;100305.00;5051435;28;20211;-68
2023/07/16 08:26:20;;;;;;;0.73;0.73;;;;;;;35.97;51.59;100308.63;5013837;28;20210;-70
2023/07/16 08:28:47;;;;;;;0.77;0.77;;;;;;;35.96;49.25;100297.97;5048496;28;20248;-70
2023/07/16 08:31:13;;;;;;;0.75;0.75;;;;;;;35.68;49.74;100305.72;5050672;28;20203;-70
2023/07/16 08:33:40;;;;;;;0.75;0.75;;;;;;;35.46;51.39;100288.78;5051495;28;20194;-69
2023/07/16 08:36:07;;;;;;;0.60;0.60;;;;;;;35.80;49.54;100304.69;5049646;28;20252;-69
2023/07/16 08:38:35;;;;;;;1.27;1.17;;;;;;;35.73;51.08;100300.81;5016003;28;20229;-74
2023/07/16 08:41:02;;;;;;;0.60;0.60;;;;;;;36.07;49.38;100295.16;5050212;28;20670;-72
2023/07/16 08:43:29;;;;;;;0.60;0.60;;;;;;;35.76;50.74;100295.13;5051505;28;20285;-70
2023/07/16 08:45:57;;;;;;;1.15;1.15;;;;;;;35.92;49.63;100299.22;5049735;28;20195;-68
2023/07/16 08:48:24;;;;;;;0.60;0.60;;;;;;;35.60;48.39;100229.09;5050238;28;20272;-70
2023/07/16 08:50:50;;;;;;;0.60;0.60;;;;;;;36.09;49.56;100301.31;5050816;28;20195;-74
2023/07/16 08:53:18;;;;;;;0.60;0.60;;;;;;;36.24;47.59;100298.16;5049018;28;20324;-74
2023/07/16 08:55:47;;;;;;;0.68;0.68;;;;;;;36.20;49.54;100303.94;5049079;28;20205;-73
2023/07/16 08:58:15;;;;;;;1.08;1.08;;;;;;;36.49;48.93;100294.13;5044860;28;20312;-71
2023/07/16 09:00:43;;;;;;;0.60;0.60;;;;;;;36.29;47.30;100292.31;5051126;28;20655;-75
2023/07/16 09:03:12;;;;;;;0.60;0.60;;;;;;;35.78;46.77;100228.38;5051169;28;20218;-73
2023/07/16 09:05:40;;;;;;;0.60;0.60;;;;;;;35.74;47.89;100253.94;5048404;28;20203;-75
2023/07/16 09:08:07;;;;;;;0.70;0.70;;;;;;;36.10;48.39;100297.66;5042027;28;20202;-76
2023/07/16 09:10:34;;;;;;;0.80;0.80;;;;;;;35.72;47.95;100288.28;5043539;28;20290;-77
2023/07/16 09:13:03;;;;;;;2.00;0.95;;;;;;;35.84;47.93;100286.38;5042080;28;20638;-76
2023/07/16 09:15:30;;;;;;;0.50;0.50;;;;;;;36.39;47.02;100281.56;5046950;28;20207;-76
2023/07/16 09:17:57;;;;;;;0.73;0.73;;;;;;;36.98;46.75;100286.97;5049785;28;20237;-75
2023/07/16 09:20:24;;;;;;;0.60;0.60;;;;;;;37.58;46.79;100296.72;5039845;28;20203;-75
2023/07/16 09:22:51;;;;;;;0.80;0.80;;;;;;;37.57;45.32;100293.16;5046399;28;20207;-73
2023/07/16 09:25:18;;;;;;;0.55;0.55;;;;;;;37.33;44.99;100300.84;5048911;28;20222;-71
2023/07/16 09:27:44;;;;;;;0.60;0.60;;;;;;;37.31;44.78;100285.75;5048357;28;20206;-70
2023/07/16 09:30:17;;;;;;;0.70;0.70;;;;;;;37.34;44.26;100289.03;5048399;28;20225;-71
2023/07/16 09:32:45;;;;;;;0.70;0.70;;;;;;;37.24;43.91;100274.66;5043477;28;20203;-72
2023/07/16 09:35:12;;;;;;;0.82;0.82;;;;;;;37.19;44.03;100272.38;5037406;28;20195;-73
2023/07/16 09:37:39;;;;;;;1.13;0.80;;;;;;;37.19;42.51;100266.97;5050927;28;20814;-68
2023/07/16 09:40:09;;;;;;;0.80;0.80;;;;;;;37.25;42.02;100276.34;5042034;28;20203;-70
2023/07/16 09:42:38;;;;;;;0.70;0.70;;;;;;;37.19;41.18;100261.56;5010912;28;20281;-72
2023/07/16 09:45:07;;;;;;;0.50;0.50;;;;;;;37.29;43.02;100277.78;5046905;28;20199;-70
2023/07/16 09:47:36;;;;;;;0.60;0.60;;;;;;;37.71;40.65;100272.91;5046094;28;22156;-71
2023/07/16 09:50:04;;;;;;;0.60;0.60;;;;;;;37.57;42.60;100286.88;5050030;28;20669;-72
2023/07/16 09:52:32;;;;;;;0.80;0.80;;;;;;;37.29;42.02;100276.91;5050714;28;20273;-73
2023/07/16 09:55:02;;;;;;;0.60;0.60;;;;;;;37.05;45.26;100280.91;5050634;28;20769;-71
2023/07/16 09:57:33;;;;;;;0.70;0.70;;;;;;;36.87;42.43;100273.59;5048189;28;20292;-73
2023/07/16 10:00:04;;;;;;;0.50;0.50;;;;;;;37.08;41.60;100279.75;5039828;28;20211;-73
2023/07/16 10:02:32;;;;;;;0.60;0.60;;;;;;;36.73;42.68;100277.56;5042149;28;20289;-74
2023/07/16 10:05:01;;;;;;;0.70;0.70;;;;;;;36.66;43.98;100268.28;5050088;28;20564;-72
2023/07/16 10:07:27;;;;;;;0.60;0.60;;;;;;;36.48;43.67;100264.50;5027932;28;20203;-72
2023/07/16 10:09:56;;;;;;;0.50;0.50;;;;;;;36.57;43.39;100269.97;5044850;28;20202;-73
2023/07/16 10:12:24;;;;;;;0.60;0.60;;;;;;;36.54;43.07;100269.34;5051388;28;20211;-72
2023/07/16 10:14:52;;;;;;;0.80;0.80;;;;;;;36.21;43.24;100197.63;5042396;28;20204;-74
2023/07/16 10:17:22;;;;;;;0.70;0.70;;;;;;;36.46;44.25;100251.13;5053700;28;20236;-78
2023/07/16 10:19:56;;;;;;;0.60;0.60;;;;;;;36.63;43.31;100264.03;5054190;28;20614;-71
2023/07/16 10:22:37;;;;;;;0.60;0.60;;;;;;;36.85;42.76;100256.66;5052994;28;20302;-70
2023/07/16 10:25:06;;;;;;;0.93;0.93;;;;;;;36.86;42.27;100247.53;5043482;28;20203;-71
2023/07/16 10:27:34;;;;;;;0.70;0.70;;;;;;;36.61;43.19;100255.19;5053575;28;20670;-70
2023/07/16 10:30:03;;;;;;;0.70;0.70;;;;;;;36.19;44.28;100257.16;5053949;28;20195;-70
2023/07/16 10:32:30;;;;;;;0.60;0.60;;;;;;;36.22;43.24;100242.53;5046920;28;20810;-70
2023/07/16 10:34:57;;;;;;;0.60;0.60;;;;;;;36.40;43.87;100249.00;5052616;28;20264;-71
2023/07/16 10:37:25;;;;;;;0.70;0.70;;;;;;;36.56;43.56;100252.06;5046173;28;20227;-72
2023/07/16 10:39:55;;;;;;;0.60;0.60;;;;;;;36.41;43.39;100252.53;5047313;28;20685;-74
2023/07/16 10:42:24;;;;;;;0.77;0.77;;;;;;;36.47;43.55;100244.75;5045248;28;20195;-72
2023/07/16 10:44:52;;;;;;;0.60;0.60;;;;;;;36.03;44.27;100248.66;5047788;28;20202;-72
2023/07/16 10:47:31;;;;;;;0.60;0.60;;;;;;;36.73;43.39;100240.56;5051587;28;20202;-72
2023/07/16 10:49:59;;;;;;;0.60;0.60;;;;;;;36.12;43.21;100209.22;5052797;28;20210;-71
2023/07/16 10:52:26;;;;;;;0.85;0.85;;;;;;;36.42;42.82;100217.31;5050525;28;20199;-71
2023/07/16 10:54:55;;;;;;;0.68;0.68;;;;;;;36.98;42.45;100227.50;5051469;28;20682;-71
2023/07/16 10:57:22;;;;;;;0.65;0.65;;;;;;;36.93;41.53;100235.16;5053200;28;20258;-71
2023/07/16 10:59:50;;;;;;;0.60;0.60;;;;;;;37.02;41.04;100220.84;5053007;28;20218;-71
2023/07/16 11:02:17;;;;;;;0.70;0.70;;;;;;;37.05;41.68;100236.78;5053979;28;20235;-72
2023/07/16 11:04:45;;;;;;;0.60;0.60;;;;;;;36.97;41.14;100231.19;5052918;28;20194;-72
2023/07/16 11:07:13;;;;;;;0.50;0.50;;;;;;;36.90;42.07;100200.31;5026916;28;20199;-71
2023/07/16 11:09:44;;;;;;;1.35;1.35;;;;;;;36.89;41.89;100231.06;5054056;28;20206;-72
2023/07/16 11:12:14;;;;;;;0.73;0.73;;;;;;;36.50;42.66;100230.94;5052493;28;20632;-71
2023/07/16 11:14:44;;;;;;;0.65;0.65;;;;;;;36.57;42.69;100229.44;5053888;28;20203;-72
2023/07/16 11:17:11;;;;;;;0.73;0.73;;;;;;;36.70;42.35;100231.88;5053578;28;20297;-71
2023/07/16 11:19:38;;;;;;;0.60;0.60;;;;;;;36.89;42.47;100222.94;5053653;28;20256;-71
2023/07/16 11:22:07;;;;;;;0.70;0.70;;;;;;;36.46;42.05;100148.47;5053826;28;20195;-71
2023/07/16 11:24:39;;;;;;;0.77;0.77;;;;;;;37.19;41.64;100228.22;5050155;28;20203;-70